sensor_id;sensor_type;location;lat;lon;timestamp;P1;durP1;ratioP1;P2;durP2;ratioP2
9986;SDS011;5033;46.310;11.214;2023-05-10T00:02:02;4.75;;;4.40;;
9986;SDS011;5033;46.310;11.214;2023-05-10T00:04:29;4.32;;;4.03;;
9986;SDS011;5033;46.310;11.214;2023-05-10T00:06:56;3.80;;;3.50;;
9986;SDS011;5033;46.310;11.214;2023-05-10T00:09:23;5.90;;;5.40;;
9986;SDS011;5033;46.310;11.214;2023-05-10T00:11:50;5.15;;;4.72;;
9986;SDS011;5033;46.310;11.214;2023-05-10T00:14:18;4.78;;;4.38;;
9986;SDS011;5033;46.310;11.214;2023-05-10T00:16:45;4.55;;;4.25;;
9986;SDS011;5033;46.310;11.214;2023-05-10T00:19:13;4.75;;;4.32;;
9986;SDS011;5033;46.310;11.214;2023-05-10T00:21:40;4.60;;;4.28;;
9986;SDS011;5033;46.310;11.214;2023-05-10T00:24:07;4.63;;;4.22;;
9986;SDS011;5033;46.310;11.214;2023-05-10T00:26:34;5.65;;;5.13;;
9986;SDS011;5033;46.310;11.214;2023-05-10T00:29:01;5.68;;;5.18;;
9986;SDS011;5033;46.310;11.214;2023-05-10T00:31:28;6.25;;;5.72;;
9986;SDS011;5033;46.310;11.214;2023-05-10T00:33:55;5.80;;;5.30;;
9986;SDS011;5033;46.310;11.214;2023-05-10T00:36:23;5.28;;;4.88;;
9986;SDS011;5033;46.310;11.214;2023-05-10T00:38:51;7.18;;;6.40;;
9986;SDS011;5033;46.310;11.214;2023-05-10T00:41:18;4.88;;;4.40;;
9986;SDS011;5033;46.310;11.214;2023-05-10T00:43:46;5.22;;;4.72;;
9986;SDS011;5033;46.310;11.214;2023-05-10T00:46:13;4.22;;;3.92;;
9986;SDS011;5033;46.310;11.214;2023-05-10T00:48:41;6.47;;;5.97;;
9986;SDS011;5033;46.310;11.214;2023-05-10T00:51:09;4.97;;;4.57;;
9986;SDS011;5033;46.310;11.214;2023-05-10T00:53:37;7.25;;;6.65;;
9986;SDS011;5033;46.310;11.214;2023-05-10T00:56:05;6.95;;;6.35;;
9986;SDS011;5033;46.310;11.214;2023-05-10T00:58:32;7.47;;;6.85;;
9986;SDS011;5033;46.310;11.214;2023-05-10T01:00:59;5.90;;;5.50;;
9986;SDS011;5033;46.310;11.214;2023-05-10T01:03:26;4.82;;;4.45;;
9986;SDS011;5033;46.310;11.214;2023-05-10T01:05:54;4.88;;;4.47;;
9986;SDS011;5033;46.310;11.214;2023-05-10T01:08:21;4.63;;;4.22;;
9986;SDS011;5033;46.310;11.214;2023-05-10T01:10:50;4.25;;;3.95;;
9986;SDS011;5033;46.310;11.214;2023-05-10T01:13:18;4.35;;;4.05;;
9986;SDS011;5033;46.310;11.214;2023-05-10T01:15:55;4.60;;;4.20;;
9986;SDS011;5033;46.310;11.214;2023-05-10T01:18:23;4.18;;;3.88;;
9986;SDS011;5033;46.310;11.214;2023-05-10T01:20:53;4.40;;;4.07;;
9986;SDS011;5033;46.310;11.214;2023-05-10T01:23:44;4.35;;;4.05;;
9986;SDS011;5033;46.310;11.214;2023-05-10T01:26:35;4.50;;;4.20;;
9986;SDS011;5033;46.310;11.214;2023-05-10T01:29:27;4.18;;;3.88;;
9986;SDS011;5033;46.310;11.214;2023-05-10T01:32:17;4.72;;;4.32;;
9986;SDS011;5033;46.310;11.214;2023-05-10T01:34:53;4.25;;;3.95;;
9986;SDS011;5033;46.310;11.214;2023-05-10T01:37:33;4.32;;;4.03;;
9986;SDS011;5033;46.310;11.214;2023-05-10T01:40:08;4.53;;;4.22;;
9986;SDS011;5033;46.310;11.214;2023-05-10T01:42:46;4.75;;;4.07;;
9986;SDS011;5033;46.310;11.214;2023-05-10T01:45:18;4.82;;;4.43;;
9986;SDS011;5033;46.310;11.214;2023-05-10T01:47:54;4.32;;;4.03;;
9986;SDS011;5033;46.310;11.214;2023-05-10T01:50:29;4.70;;;4.35;;
9986;SDS011;5033;46.310;11.214;2023-05-10T01:52:57;4.47;;;4.18;;
9986;SDS011;5033;46.310;11.214;2023-05-10T01:55:27;4.38;;;4.05;;
9986;SDS011;5033;46.310;11.214;2023-05-10T01:57:58;4.60;;;4.20;;
9986;SDS011;5033;46.310;11.214;2023-05-10T02:00:29;4.05;;;3.75;;
9986;SDS011;5033;46.310;11.214;2023-05-10T02:02:58;4.97;;;4.68;;
9986;SDS011;5033;46.310;11.214;2023-05-10T02:05:30;4.20;;;3.90;;
9986;SDS011;5033;46.310;11.214;2023-05-10T02:07:59;3.90;;;3.60;;
9986;SDS011;5033;46.310;11.214;2023-05-10T02:10:29;4.38;;;4.07;;
9986;SDS011;5033;46.310;11.214;2023-05-10T02:12:58;4.10;;;3.80;;
9986;SDS011;5033;46.310;11.214;2023-05-10T02:15:26;4.03;;;3.72;;
9986;SDS011;5033;46.310;11.214;2023-05-10T02:17:55;4.22;;;3.92;;
9986;SDS011;5033;46.310;11.214;2023-05-10T02:20:25;4.28;;;3.97;;
9986;SDS011;5033;46.310;11.214;2023-05-10T02:22:53;4.93;;;4.50;;
9986;SDS011;5033;46.310;11.214;2023-05-10T02:25:22;4.50;;;4.20;;
9986;SDS011;5033;46.310;11.214;2023-05-10T02:27:50;4.13;;;3.83;;
9986;SDS011;5033;46.310;11.214;2023-05-10T02:30:20;4.65;;;4.30;;
9986;SDS011;5033;46.310;11.214;2023-05-10T02:32:48;4.70;;;4.32;;
9986;SDS011;5033;46.310;11.214;2023-05-10T02:35:16;4.10;;;3.80;;
9986;SDS011;5033;46.310;11.214;2023-05-10T02:37:45;4.53;;;4.18;;
9986;SDS011;5033;46.310;11.214;2023-05-10T02:40:13;4.80;;;4.30;;
9986;SDS011;5033;46.310;11.214;2023-05-10T02:42:41;4.43;;;4.07;;
9986;SDS011;5033;46.310;11.214;2023-05-10T02:45:11;4.47;;;4.18;;
9986;SDS011;5033;46.310;11.214;2023-05-10T02:47:41;4.32;;;4.00;;
9986;SDS011;5033;46.310;11.214;2023-05-10T02:50:09;4.38;;;4.07;;
9986;SDS011;5033;46.310;11.214;2023-05-10T02:52:40;4.10;;;3.80;;
9986;SDS011;5033;46.310;11.214;2023-05-10T02:55:14;4.35;;;4.05;;
9986;SDS011;5033;46.310;11.214;2023-05-10T02:57:45;3.95;;;3.65;;
9986;SDS011;5033;46.310;11.214;2023-05-10T03:00:15;4.72;;;4.38;;
9986;SDS011;5033;46.310;11.214;2023-05-10T03:02:42;3.92;;;3.63;;
9986;SDS011;5033;46.310;11.214;2023-05-10T03:05:08;7.55;;;6.82;;
9986;SDS011;5033;46.310;11.214;2023-05-10T03:07:35;5.95;;;5.45;;
9986;SDS011;5033;46.310;11.214;2023-05-10T03:10:03;4.97;;;4.57;;
9986;SDS011;5033;46.310;11.214;2023-05-10T03:12:33;5.15;;;4.75;;
9986;SDS011;5033;46.310;11.214;2023-05-10T03:15:13;5.55;;;4.95;;
9986;SDS011;5033;46.310;11.214;2023-05-10T03:17:46;4.80;;;4.40;;
9986;SDS011;5033;46.310;11.214;2023-05-10T03:20:21;5.72;;;5.15;;
9986;SDS011;5033;46.310;11.214;2023-05-10T03:22:53;4.55;;;4.25;;
9986;SDS011;5033;46.310;11.214;2023-05-10T03:25:24;5.07;;;4.68;;
9986;SDS011;5033;46.310;11.214;2023-05-10T03:27:53;5.22;;;4.82;;
9986;SDS011;5033;46.310;11.214;2023-05-10T03:30:22;4.78;;;4.38;;
9986;SDS011;5033;46.310;11.214;2023-05-10T03:32:50;4.78;;;4.38;;
9986;SDS011;5033;46.310;11.214;2023-05-10T03:35:17;4.72;;;4.32;;
9986;SDS011;5033;46.310;11.214;2023-05-10T03:37:44;4.72;;;4.43;;
9986;SDS011;5033;46.310;11.214;2023-05-10T03:40:12;5.30;;;4.80;;
9986;SDS011;5033;46.310;11.214;2023-05-10T03:42:39;5.30;;;4.85;;
9986;SDS011;5033;46.310;11.214;2023-05-10T03:45:08;5.32;;;4.93;;
9986;SDS011;5033;46.310;11.214;2023-05-10T03:47:35;5.32;;;4.93;;
9986;SDS011;5033;46.310;11.214;2023-05-10T03:50:02;5.60;;;5.00;;
9986;SDS011;5033;46.310;11.214;2023-05-10T03:52:30;5.22;;;4.82;;
9986;SDS011;5033;46.310;11.214;2023-05-10T03:54:57;4.72;;;4.32;;
9986;SDS011;5033;46.310;11.214;2023-05-10T03:57:24;5.50;;;4.97;;
9986;SDS011;5033;46.310;11.214;2023-05-10T03:59:51;5.05;;;4.65;;
9986;SDS011;5033;46.310;11.214;2023-05-10T04:02:19;5.40;;;4.90;;
9986;SDS011;5033;46.310;11.214;2023-05-10T04:04:46;5.32;;;4.72;;
9986;SDS011;5033;46.310;11.214;2023-05-10T04:07:13;6.30;;;5.70;;
9986;SDS011;5033;46.310;11.214;2023-05-10T04:09:40;5.90;;;5.40;;
9986;SDS011;5033;46.310;11.214;2023-05-10T04:12:07;5.18;;;4.78;;
9986;SDS011;5033;46.310;11.214;2023-05-10T04:14:34;5.93;;;5.43;;
9986;SDS011;5033;46.310;11.214;2023-05-10T04:17:01;5.72;;;5.07;;
9986;SDS011;5033;46.310;11.214;2023-05-10T04:19:30;6.00;;;5.53;;
9986;SDS011;5033;46.310;11.214;2023-05-10T04:21:57;5.78;;;5.28;;
9986;SDS011;5033;46.310;11.214;2023-05-10T04:24:24;5.75;;;5.28;;
9986;SDS011;5033;46.310;11.214;2023-05-10T04:26:51;5.78;;;5.38;;
9986;SDS011;5033;46.310;11.214;2023-05-10T04:29:19;5.82;;;5.32;;
9986;SDS011;5033;46.310;11.214;2023-05-10T04:31:46;6.32;;;5.82;;
9986;SDS011;5033;46.310;11.214;2023-05-10T04:34:13;6.50;;;5.90;;
9986;SDS011;5033;46.310;11.214;2023-05-10T04:36:42;5.63;;;5.22;;
9986;SDS011;5033;46.310;11.214;2023-05-10T04:39:09;6.03;;;5.53;;
9986;SDS011;5033;46.310;11.214;2023-05-10T04:41:37;5.00;;;4.60;;
9986;SDS011;5033;46.310;11.214;2023-05-10T04:44:04;6.75;;;6.15;;
9986;SDS011;5033;46.310;11.214;2023-05-10T04:46:31;6.10;;;5.53;;
9986;SDS011;5033;46.310;11.214;2023-05-10T04:48:58;6.40;;;5.90;;
9986;SDS011;5033;46.310;11.214;2023-05-10T04:51:25;8.48;;;7.68;;
9986;SDS011;5033;46.310;11.214;2023-05-10T04:53:53;8.30;;;7.60;;
9986;SDS011;5033;46.310;11.214;2023-05-10T04:56:20;7.93;;;7.22;;
9986;SDS011;5033;46.310;11.214;2023-05-10T04:58:47;8.40;;;7.70;;
9986;SDS011;5033;46.310;11.214;2023-05-10T05:01:14;8.35;;;7.65;;
9986;SDS011;5033;46.310;11.214;2023-05-10T05:03:41;7.20;;;6.60;;
9986;SDS011;5033;46.310;11.214;2023-05-10T05:06:08;6.38;;;5.80;;
9986;SDS011;5033;46.310;11.214;2023-05-10T05:08:35;5.93;;;5.43;;
9986;SDS011;5033;46.310;11.214;2023-05-10T05:11:03;7.05;;;6.45;;
9986;SDS011;5033;46.310;11.214;2023-05-10T05:13:30;6.88;;;6.32;;
9986;SDS011;5033;46.310;11.214;2023-05-10T05:15:59;6.53;;;5.97;;
9986;SDS011;5033;46.310;11.214;2023-05-10T05:18:27;5.78;;;5.38;;
9986;SDS011;5033;46.310;11.214;2023-05-10T05:20:54;6.43;;;5.93;;
9986;SDS011;5033;46.310;11.214;2023-05-10T05:23:21;6.32;;;5.82;;
9986;SDS011;5033;46.310;11.214;2023-05-10T05:25:50;5.57;;;5.15;;
9986;SDS011;5033;46.310;11.214;2023-05-10T05:28:19;6.40;;;5.90;;
9986;SDS011;5033;46.310;11.214;2023-05-10T05:30:46;5.80;;;5.30;;
9986;SDS011;5033;46.310;11.214;2023-05-10T05:33:13;5.53;;;5.13;;
9986;SDS011;5033;46.310;11.214;2023-05-10T05:35:41;5.32;;;4.93;;
9986;SDS011;5033;46.310;11.214;2023-05-10T05:38:12;5.10;;;4.70;;
9986;SDS011;5033;46.310;11.214;2023-05-10T05:40:39;5.53;;;5.13;;
9986;SDS011;5033;46.310;11.214;2023-05-10T05:43:06;4.97;;;4.68;;
9986;SDS011;5033;46.310;11.214;2023-05-10T05:45:34;4.97;;;4.57;;
9986;SDS011;5033;46.310;11.214;2023-05-10T05:48:01;4.78;;;4.47;;
9986;SDS011;5033;46.310;11.214;2023-05-10T05:50:28;5.63;;;5.22;;
9986;SDS011;5033;46.310;11.214;2023-05-10T05:52:55;5.65;;;5.15;;
9986;SDS011;5033;46.310;11.214;2023-05-10T05:55:22;36.28;;;6.60;;
9986;SDS011;5033;46.310;11.214;2023-05-10T05:57:50;49.80;;;6.53;;
9986;SDS011;5033;46.310;11.214;2023-05-10T06:00:17;61.35;;;7.53;;
9986;SDS011;5033;46.310;11.214;2023-05-10T06:02:46;22.20;;;5.90;;
9986;SDS011;5033;46.310;11.214;2023-05-10T06:05:13;26.05;;;6.75;;
9986;SDS011;5033;46.310;11.214;2023-05-10T06:07:40;10.10;;;5.78;;
9986;SDS011;5033;46.310;11.214;2023-05-10T06:10:08;6.10;;;5.60;;
9986;SDS011;5033;46.310;11.214;2023-05-10T06:12:35;5.55;;;5.15;;
9986;SDS011;5033;46.310;11.214;2023-05-10T06:15:02;10.23;;;5.10;;
9986;SDS011;5033;46.310;11.214;2023-05-10T06:17:30;5.40;;;5.00;;
9986;SDS011;5033;46.310;11.214;2023-05-10T06:19:58;5.18;;;4.78;;
9986;SDS011;5033;46.310;11.214;2023-05-10T06:22:25;5.80;;;5.13;;
9986;SDS011;5033;46.310;11.214;2023-05-10T06:24:52;10.90;;;5.03;;
9986;SDS011;5033;46.310;11.214;2023-05-10T06:27:19;4.43;;;4.13;;
9986;SDS011;5033;46.310;11.214;2023-05-10T06:29:46;5.10;;;4.70;;
9986;SDS011;5033;46.310;11.214;2023-05-10T06:32:13;4.57;;;4.28;;
9986;SDS011;5033;46.310;11.214;2023-05-10T06:34:40;64.80;;;7.35;;
9986;SDS011;5033;46.310;11.214;2023-05-10T06:37:09;5.15;;;4.75;;
9986;SDS011;5033;46.310;11.214;2023-05-10T06:39:36;4.57;;;4.18;;
9986;SDS011;5033;46.310;11.214;2023-05-10T06:42:03;4.00;;;3.70;;
9986;SDS011;5033;46.310;11.214;2023-05-10T06:44:30;5.00;;;4.50;;
9986;SDS011;5033;46.310;11.214;2023-05-10T06:46:57;4.32;;;4.03;;
9986;SDS011;5033;46.310;11.214;2023-05-10T06:49:24;20.85;;;5.00;;
9986;SDS011;5033;46.310;11.214;2023-05-10T06:51:51;4.15;;;3.85;;
9986;SDS011;5033;46.310;11.214;2023-05-10T06:54:19;4.53;;;4.05;;
9986;SDS011;5033;46.310;11.214;2023-05-10T06:56:46;7.22;;;4.10;;
9986;SDS011;5033;46.310;11.214;2023-05-10T06:59:13;4.10;;;3.80;;
9986;SDS011;5033;46.310;11.214;2023-05-10T07:01:41;4.05;;;3.65;;
9986;SDS011;5033;46.310;11.214;2023-05-10T07:04:08;4.35;;;4.05;;
9986;SDS011;5033;46.310;11.214;2023-05-10T07:06:35;4.95;;;3.92;;
9986;SDS011;5033;46.310;11.214;2023-05-10T07:09:02;4.25;;;3.85;;
9986;SDS011;5033;46.310;11.214;2023-05-10T07:11:30;7.15;;;4.00;;
9986;SDS011;5033;46.310;11.214;2023-05-10T07:13:57;3.92;;;3.65;;
9986;SDS011;5033;46.310;11.214;2023-05-10T07:16:24;3.42;;;3.22;;
9986;SDS011;5033;46.310;11.214;2023-05-10T07:18:52;3.10;;;2.90;;
9986;SDS011;5033;46.310;11.214;2023-05-10T07:21:19;3.83;;;3.53;;
9986;SDS011;5033;46.310;11.214;2023-05-10T07:23:46;3.40;;;3.20;;
9986;SDS011;5033;46.310;11.214;2023-05-10T07:26:13;3.28;;;3.05;;
9986;SDS011;5033;46.310;11.214;2023-05-10T07:28:41;4.60;;;4.30;;
9986;SDS011;5033;46.310;11.214;2023-05-10T07:31:08;3.45;;;3.25;;
9986;SDS011;5033;46.310;11.214;2023-05-10T07:33:35;4.18;;;3.88;;
9986;SDS011;5033;46.310;11.214;2023-05-10T07:36:02;3.83;;;3.53;;
9986;SDS011;5033;46.310;11.214;2023-05-10T07:38:29;4.28;;;3.97;;
9986;SDS011;5033;46.310;11.214;2023-05-10T07:40:56;4.53;;;4.22;;
9986;SDS011;5033;46.310;11.214;2023-05-10T07:43:23;4.05;;;3.75;;
9986;SDS011;5033;46.310;11.214;2023-05-10T07:45:51;4.05;;;3.75;;
9986;SDS011;5033;46.310;11.214;2023-05-10T07:48:18;3.72;;;3.42;;
9986;SDS011;5033;46.310;11.214;2023-05-10T07:50:46;3.97;;;3.67;;
9986;SDS011;5033;46.310;11.214;2023-05-10T07:53:13;4.30;;;4.00;;
9986;SDS011;5033;46.310;11.214;2023-05-10T07:55:39;3.95;;;3.65;;
9986;SDS011;5033;46.310;11.214;2023-05-10T07:58:06;4.05;;;3.72;;
9986;SDS011;5033;46.310;11.214;2023-05-10T08:00:33;3.90;;;3.70;;
9986;SDS011;5033;46.310;11.214;2023-05-10T08:03:01;4.20;;;3.90;;
9986;SDS011;5033;46.310;11.214;2023-05-10T08:05:28;3.75;;;3.45;;
9986;SDS011;5033;46.310;11.214;2023-05-10T08:07:56;3.80;;;3.60;;
9986;SDS011;5033;46.310;11.214;2023-05-10T08:10:24;4.03;;;3.72;;
9986;SDS011;5033;46.310;11.214;2023-05-10T08:12:51;3.30;;;3.10;;
9986;SDS011;5033;46.310;11.214;2023-05-10T08:15:18;3.33;;;3.13;;
9986;SDS011;5033;46.310;11.214;2023-05-10T08:17:45;3.50;;;3.30;;
9986;SDS011;5033;46.310;11.214;2023-05-10T08:20:13;3.58;;;3.28;;
9986;SDS011;5033;46.310;11.214;2023-05-10T08:22:41;3.42;;;3.15;;
9986;SDS011;5033;46.310;11.214;2023-05-10T08:25:08;5.13;;;4.22;;
9986;SDS011;5033;46.310;11.214;2023-05-10T08:27:35;4.40;;;4.00;;
9986;SDS011;5033;46.310;11.214;2023-05-10T08:30:02;23.33;;;5.10;;
9986;SDS011;5033;46.310;11.214;2023-05-10T08:32:30;5.22;;;4.72;;
9986;SDS011;5033;46.310;11.214;2023-05-10T08:34:56;4.68;;;4.28;;
9986;SDS011;5033;46.310;11.214;2023-05-10T08:37:25;6.97;;;3.70;;
9986;SDS011;5033;46.310;11.214;2023-05-10T08:39:52;4.22;;;3.90;;
9986;SDS011;5033;46.310;11.214;2023-05-10T08:42:19;11.20;;;3.97;;
9986;SDS011;5033;46.310;11.214;2023-05-10T08:44:52;132.82;;;9.93;;
9986;SDS011;5033;46.310;11.214;2023-05-10T08:47:20;151.23;;;7.72;;
9986;SDS011;5033;46.310;11.214;2023-05-10T08:49:47;3.50;;;3.28;;
9986;SDS011;5033;46.310;11.214;2023-05-10T08:52:16;3.30;;;3.10;;
9986;SDS011;5033;46.310;11.214;2023-05-10T08:54:46;7.93;;;3.17;;
9986;SDS011;5033;46.310;11.214;2023-05-10T08:57:13;30.02;;;4.72;;
9986;SDS011;5033;46.310;11.214;2023-05-10T08:59:40;3.25;;;3.05;;
9986;SDS011;5033;46.310;11.214;2023-05-10T09:02:07;4.82;;;2.90;;
9986;SDS011;5033;46.310;11.214;2023-05-10T09:04:37;2.90;;;2.70;;
9986;SDS011;5033;46.310;11.214;2023-05-10T09:07:04;2.90;;;2.70;;
9986;SDS011;5033;46.310;11.214;2023-05-10T09:09:32;2.80;;;2.60;;
9986;SDS011;5033;46.310;11.214;2023-05-10T09:12:01;2.75;;;2.65;;
9986;SDS011;5033;46.310;11.214;2023-05-10T09:14:29;2.58;;;2.42;;
9986;SDS011;5033;46.310;11.214;2023-05-10T09:16:56;20.55;;;3.47;;
9986;SDS011;5033;46.310;11.214;2023-05-10T09:19:23;3.45;;;3.15;;
9986;SDS011;5033;46.310;11.214;2023-05-10T09:21:50;3.13;;;2.92;;
9986;SDS011;5033;46.310;11.214;2023-05-10T09:24:17;3.42;;;3.22;;
9986;SDS011;5033;46.310;11.214;2023-05-10T09:26:48;4.18;;;3.88;;
9986;SDS011;5033;46.310;11.214;2023-05-10T09:29:16;21.80;;;4.85;;
9986;SDS011;5033;46.310;11.214;2023-05-10T09:31:44;18.98;;;4.05;;
9986;SDS011;5033;46.310;11.214;2023-05-10T09:34:15;4.90;;;2.95;;
9986;SDS011;5033;46.310;11.214;2023-05-10T09:36:50;3.95;;;3.00;;
9986;SDS011;5033;46.310;11.214;2023-05-10T09:39:18;3.42;;;3.17;;
9986;SDS011;5033;46.310;11.214;2023-05-10T09:41:45;3.00;;;2.80;;
9986;SDS011;5033;46.310;11.214;2023-05-10T09:44:17;5.88;;;3.17;;
9986;SDS011;5033;46.310;11.214;2023-05-10T09:46:48;3.45;;;3.25;;
9986;SDS011;5033;46.310;11.214;2023-05-10T09:49:17;19.38;;;3.88;;
9986;SDS011;5033;46.310;11.214;2023-05-10T09:51:45;10.13;;;3.42;;
9986;SDS011;5033;46.310;11.214;2023-05-10T09:54:12;5.82;;;3.22;;
9986;SDS011;5033;46.310;11.214;2023-05-10T09:56:40;2.75;;;2.55;;
9986;SDS011;5033;46.310;11.214;2023-05-10T09:59:09;3.10;;;2.80;;
9986;SDS011;5033;46.310;11.214;2023-05-10T10:01:38;2.85;;;2.65;;
9986;SDS011;5033;46.310;11.214;2023-05-10T10:04:06;2.33;;;2.22;;
9986;SDS011;5033;46.310;11.214;2023-05-10T10:06:36;2.70;;;2.60;;
9986;SDS011;5033;46.310;11.214;2023-05-10T10:09:04;2.75;;;2.58;;
9986;SDS011;5033;46.310;11.214;2023-05-10T10:11:32;2.75;;;2.53;;
9986;SDS011;5033;46.310;11.214;2023-05-10T10:13:59;2.95;;;2.75;;
9986;SDS011;5033;46.310;11.214;2023-05-10T10:16:27;4.80;;;3.38;;
9986;SDS011;5033;46.310;11.214;2023-05-10T10:18:57;3.25;;;3.05;;
9986;SDS011;5033;46.310;11.214;2023-05-10T10:21:24;3.33;;;3.03;;
9986;SDS011;5033;46.310;11.214;2023-05-10T10:23:51;5.78;;;3.20;;
9986;SDS011;5033;46.310;11.214;2023-05-10T10:26:18;3.28;;;3.03;;
9986;SDS011;5033;46.310;11.214;2023-05-10T10:28:47;3.28;;;3.08;;
9986;SDS011;5033;46.310;11.214;2023-05-10T10:31:21;2.50;;;2.40;;
9986;SDS011;5033;46.310;11.214;2023-05-10T10:33:59;2.50;;;2.30;;
9986;SDS011;5033;46.310;11.214;2023-05-10T10:36:27;2.30;;;2.20;;
9986;SDS011;5033;46.310;11.214;2023-05-10T10:38:58;2.17;;;2.08;;
9986;SDS011;5033;46.310;11.214;2023-05-10T10:41:30;1.90;;;1.80;;
9986;SDS011;5033;46.310;11.214;2023-05-10T10:47:01;1.27;;;1.27;;
9986;SDS011;5033;46.310;11.214;2023-05-10T10:49:37;1.20;;;1.10;;
9986;SDS011;5033;46.310;11.214;2023-05-10T10:52:13;1.30;;;1.30;;
9986;SDS011;5033;46.310;11.214;2023-05-10T10:54:46;1.20;;;1.20;;
9986;SDS011;5033;46.310;11.214;2023-05-10T10:57:17;1.50;;;1.40;;
9986;SDS011;5033;46.310;11.214;2023-05-10T10:59:46;1.08;;;1.08;;
9986;SDS011;5033;46.310;11.214;2023-05-10T11:02:32;1.50;;;1.40;;
9986;SDS011;5033;46.310;11.214;2023-05-10T11:05:01;1.42;;;1.33;;
9986;SDS011;5033;46.310;11.214;2023-05-10T11:08:06;1.10;;;1.10;;
9986;SDS011;5033;46.310;11.214;2023-05-10T11:10:49;1.23;;;1.23;;
9986;SDS011;5033;46.310;11.214;2023-05-10T11:13:34;1.55;;;1.40;;
9986;SDS011;5033;46.310;11.214;2023-05-10T11:16:15;1.58;;;1.48;;
9986;SDS011;5033;46.310;11.214;2023-05-10T11:18:52;1.75;;;1.65;;
9986;SDS011;5033;46.310;11.214;2023-05-10T11:21:22;1.60;;;1.50;;
9986;SDS011;5033;46.310;11.214;2023-05-10T11:23:49;2.20;;;2.03;;
9986;SDS011;5033;46.310;11.214;2023-05-10T11:26:21;1.95;;;1.85;;
9986;SDS011;5033;46.310;11.214;2023-05-10T11:28:51;1.95;;;1.85;;
9986;SDS011;5033;46.310;11.214;2023-05-10T11:31:20;2.63;;;2.30;;
9986;SDS011;5033;46.310;11.214;2023-05-10T11:33:49;2.15;;;2.05;;
9986;SDS011;5033;46.310;11.214;2023-05-10T11:36:17;2.08;;;1.98;;
9986;SDS011;5033;46.310;11.214;2023-05-10T11:38:47;1.92;;;1.83;;
9986;SDS011;5033;46.310;11.214;2023-05-10T11:41:15;2.38;;;2.28;;
9986;SDS011;5033;46.310;11.214;2023-05-10T11:43:43;2.40;;;2.30;;
9986;SDS011;5033;46.310;11.214;2023-05-10T11:46:13;2.00;;;1.90;;
9986;SDS011;5033;46.310;11.214;2023-05-10T11:48:41;2.00;;;1.90;;
9986;SDS011;5033;46.310;11.214;2023-05-10T11:51:09;2.45;;;2.25;;
9986;SDS011;5033;46.310;11.214;2023-05-10T11:53:37;2.00;;;1.85;;
9986;SDS011;5033;46.310;11.214;2023-05-10T11:56:06;1.98;;;1.88;;
9986;SDS011;5033;46.310;11.214;2023-05-10T11:58:34;2.03;;;1.92;;
9986;SDS011;5033;46.310;11.214;2023-05-10T12:01:03;1.80;;;1.70;;
9986;SDS011;5033;46.310;11.214;2023-05-10T12:03:31;1.80;;;1.70;;
9986;SDS011;5033;46.310;11.214;2023-05-10T12:05:59;1.60;;;1.50;;
9986;SDS011;5033;46.310;11.214;2023-05-10T12:08:26;1.70;;;1.60;;
9986;SDS011;5033;46.310;11.214;2023-05-10T12:11:03;1.85;;;1.75;;
9986;SDS011;5033;46.310;11.214;2023-05-10T12:13:37;1.50;;;1.40;;
9986;SDS011;5033;46.310;11.214;2023-05-10T12:16:12;1.45;;;1.45;;
9986;SDS011;5033;46.310;11.214;2023-05-10T12:18:40;1.67;;;1.58;;
9986;SDS011;5033;46.310;11.214;2023-05-10T12:21:09;1.40;;;1.30;;
9986;SDS011;5033;46.310;11.214;2023-05-10T12:23:36;1.17;;;1.17;;
9986;SDS011;5033;46.310;11.214;2023-05-10T12:26:04;1.80;;;1.70;;
9986;SDS011;5033;46.310;11.214;2023-05-10T12:28:32;1.60;;;1.50;;
9986;SDS011;5033;46.310;11.214;2023-05-10T12:31:01;1.70;;;1.60;;
9986;SDS011;5033;46.310;11.214;2023-05-10T12:33:34;1.70;;;1.60;;
9986;SDS011;5033;46.310;11.214;2023-05-10T12:36:04;1.20;;;1.20;;
9986;SDS011;5033;46.310;11.214;2023-05-10T12:38:32;1.25;;;1.25;;
9986;SDS011;5033;46.310;11.214;2023-05-10T12:41:01;1.50;;;1.40;;
9986;SDS011;5033;46.310;11.214;2023-05-10T12:43:30;1.42;;;1.30;;
9986;SDS011;5033;46.310;11.214;2023-05-10T12:45:57;1.52;;;1.42;;
9986;SDS011;5033;46.310;11.214;2023-05-10T12:48:25;1.55;;;1.45;;
9986;SDS011;5033;46.310;11.214;2023-05-10T12:50:53;1.50;;;1.50;;
9986;SDS011;5033;46.310;11.214;2023-05-10T12:53:20;1.30;;;1.30;;
9986;SDS011;5033;46.310;11.214;2023-05-10T12:55:47;1.50;;;1.40;;
9986;SDS011;5033;46.310;11.214;2023-05-10T12:58:14;1.17;;;1.17;;
9986;SDS011;5033;46.310;11.214;2023-05-10T13:00:42;1.20;;;1.20;;
9986;SDS011;5033;46.310;11.214;2023-05-10T13:03:10;1.55;;;1.45;;
9986;SDS011;5033;46.310;11.214;2023-05-10T13:05:36;1.15;;;1.15;;
9986;SDS011;5033;46.310;11.214;2023-05-10T13:08:04;1.45;;;1.27;;
9986;SDS011;5033;46.310;11.214;2023-05-10T13:10:31;1.30;;;1.30;;
9986;SDS011;5033;46.310;11.214;2023-05-10T13:12:58;1.40;;;1.40;;
9986;SDS011;5033;46.310;11.214;2023-05-10T13:15:25;1.50;;;1.40;;
9986;SDS011;5033;46.310;11.214;2023-05-10T13:17:54;1.17;;;1.17;;
9986;SDS011;5033;46.310;11.214;2023-05-10T13:20:21;1.50;;;1.40;;
9986;SDS011;5033;46.310;11.214;2023-05-10T13:22:48;1.52;;;1.42;;
9986;SDS011;5033;46.310;11.214;2023-05-10T13:25:16;1.88;;;1.50;;
9986;SDS011;5033;46.310;11.214;2023-05-10T13:27:42;1.55;;;1.45;;
9986;SDS011;5033;46.310;11.214;2023-05-10T13:30:10;1.50;;;1.40;;
9986;SDS011;5033;46.310;11.214;2023-05-10T13:32:37;1.48;;;1.17;;
9986;SDS011;5033;46.310;11.214;2023-05-10T13:35:06;2.80;;;1.60;;
9986;SDS011;5033;46.310;11.214;2023-05-10T13:37:34;2.13;;;1.40;;
9986;SDS011;5033;46.310;11.214;2023-05-10T13:40:02;2.75;;;1.52;;
9986;SDS011;5033;46.310;11.214;2023-05-10T13:42:30;1.88;;;1.50;;
9986;SDS011;5033;46.310;11.214;2023-05-10T13:44:58;1.52;;;1.42;;
9986;SDS011;5033;46.310;11.214;2023-05-10T13:47:25;1.73;;;1.63;;
9986;SDS011;5033;46.310;11.214;2023-05-10T13:49:52;1.45;;;1.35;;
9986;SDS011;5033;46.310;11.214;2023-05-10T13:52:20;1.95;;;1.55;;
9986;SDS011;5033;46.310;11.214;2023-05-10T13:54:47;1.75;;;1.25;;
9986;SDS011;5033;46.310;11.214;2023-05-10T13:57:14;1.40;;;1.30;;
9986;SDS011;5033;46.310;11.214;2023-05-10T13:59:41;1.60;;;1.50;;
9986;SDS011;5033;46.310;11.214;2023-05-10T14:02:11;1.98;;;1.58;;
9986;SDS011;5033;46.310;11.214;2023-05-10T14:04:38;1.50;;;1.50;;
9986;SDS011;5033;46.310;11.214;2023-05-10T14:07:05;1.30;;;1.30;;
9986;SDS011;5033;46.310;11.214;2023-05-10T14:09:34;1.30;;;1.30;;
9986;SDS011;5033;46.310;11.214;2023-05-10T14:12:01;1.42;;;1.33;;
9986;SDS011;5033;46.310;11.214;2023-05-10T14:14:28;1.45;;;1.45;;
9986;SDS011;5033;46.310;11.214;2023-05-10T14:16:55;1.23;;;1.23;;
9986;SDS011;5033;46.310;11.214;2023-05-10T14:19:22;1.15;;;1.15;;
9986;SDS011;5033;46.310;11.214;2023-05-10T14:21:49;1.23;;;1.23;;
9986;SDS011;5033;46.310;11.214;2023-05-10T14:24:17;1.27;;;1.27;;
9986;SDS011;5033;46.310;11.214;2023-05-10T14:26:45;1.20;;;1.20;;
9986;SDS011;5033;46.310;11.214;2023-05-10T14:29:12;1.10;;;1.10;;
9986;SDS011;5033;46.310;11.214;2023-05-10T14:31:39;1.52;;;1.42;;
9986;SDS011;5033;46.310;11.214;2023-05-10T14:34:06;1.35;;;1.25;;
9986;SDS011;5033;46.310;11.214;2023-05-10T14:36:33;1.38;;;1.38;;
9986;SDS011;5033;46.310;11.214;2023-05-10T14:39:00;1.15;;;1.15;;
9986;SDS011;5033;46.310;11.214;2023-05-10T14:41:27;1.50;;;1.40;;
9986;SDS011;5033;46.310;11.214;2023-05-10T14:43:56;1.30;;;1.30;;
9986;SDS011;5033;46.310;11.214;2023-05-10T14:46:23;1.10;;;1.10;;
9986;SDS011;5033;46.310;11.214;2023-05-10T14:48:50;1.35;;;1.30;;
9986;SDS011;5033;46.310;11.214;2023-05-10T14:51:17;1.35;;;1.35;;
9986;SDS011;5033;46.310;11.214;2023-05-10T14:53:46;1.10;;;1.10;;
9986;SDS011;5033;46.310;11.214;2023-05-10T14:56:13;1.00;;;1.00;;
9986;SDS011;5033;46.310;11.214;2023-05-10T14:58:40;1.20;;;1.20;;
9986;SDS011;5033;46.310;11.214;2023-05-10T15:01:08;1.10;;;1.10;;
9986;SDS011;5033;46.310;11.214;2023-05-10T15:03:35;1.40;;;1.30;;
9986;SDS011;5033;46.310;11.214;2023-05-10T15:06:03;0.90;;;0.90;;
9986;SDS011;5033;46.310;11.214;2023-05-10T15:08:30;0.90;;;0.90;;
9986;SDS011;5033;46.310;11.214;2023-05-10T15:10:57;1.17;;;1.17;;
9986;SDS011;5033;46.310;11.214;2023-05-10T15:13:24;1.00;;;1.00;;